createdAt,value
2019-03-11T00:01:33.933Z,4.10
2019-03-11T00:04:02.039Z,4.10
2019-03-11T00:06:30.196Z,4.10
2019-03-11T00:08:58.300Z,4.10
2019-03-11T00:11:27.719Z,4.20
2019-03-11T00:13:55.895Z,4.20
2019-03-11T00:16:23.972Z,4.20
2019-03-11T00:18:52.127Z,4.20
2019-03-11T00:21:20.211Z,4.20
2019-03-11T00:23:48.291Z,4.20
2019-03-11T00:26:16.459Z,4.20
2019-03-11T00:28:44.607Z,4.20
2019-03-11T00:31:12.762Z,4.20
2019-03-11T00:33:40.866Z,4.20
2019-03-11T00:36:09.056Z,4.20
2019-03-11T00:38:37.231Z,4.20
2019-03-11T00:41:05.282Z,4.10
2019-03-11T00:43:33.261Z,4.00
2019-03-11T00:46:01.436Z,4.00
2019-03-11T00:48:29.692Z,4.00
2019-03-11T00:50:57.730Z,4.00
2019-03-11T00:53:25.929Z,4.00
2019-03-11T00:55:54.159Z,3.90
2019-03-11T00:58:22.533Z,3.90
2019-03-11T01:00:50.665Z,3.90
2019-03-11T01:03:18.794Z,4.00
2019-03-11T01:05:46.881Z,4.00
2019-03-11T01:08:15.154Z,4.00
2019-03-11T01:10:43.244Z,4.00
2019-03-11T01:13:11.290Z,4.00
2019-03-11T01:15:39.406Z,3.90
2019-03-11T01:18:07.514Z,3.70
2019-03-11T01:20:35.540Z,3.70
2019-03-11T01:23:04.146Z,3.60
2019-03-11T01:25:32.244Z,3.60
2019-03-11T01:28:00.547Z,3.50
2019-03-11T01:30:28.771Z,3.50
2019-03-11T01:32:56.975Z,3.40
2019-03-11T01:35:26.046Z,3.40
2019-03-11T01:37:54.146Z,3.50
2019-03-11T01:40:22.210Z,3.50
2019-03-11T01:42:51.803Z,3.40
2019-03-11T01:45:20.210Z,3.50
2019-03-11T01:47:48.243Z,3.50
2019-03-11T01:50:16.569Z,3.50
2019-03-11T01:52:44.651Z,3.50
2019-03-11T01:55:13.281Z,3.40
2019-03-11T01:57:42.374Z,3.30
2019-03-11T02:00:12.394Z,3.40
2019-03-11T02:02:40.571Z,3.40
2019-03-11T02:05:09.202Z,3.30
2019-03-11T02:07:37.534Z,3.40
2019-03-11T02:10:08.670Z,3.40
2019-03-11T02:12:36.803Z,3.30
2019-03-11T02:15:06.011Z,3.20
2019-03-11T02:17:35.149Z,3.10
2019-03-11T02:20:03.531Z,3.10
2019-03-11T02:22:31.767Z,3.10
2019-03-11T02:24:59.908Z,3.10
2019-03-11T02:27:28.049Z,3.10
2019-03-11T02:29:56.430Z,3.10
2019-03-11T02:32:24.684Z,3.10
2019-03-11T02:34:52.990Z,3.00
2019-03-11T02:37:21.089Z,3.10
2019-03-11T02:39:49.154Z,3.00
2019-03-11T02:42:17.373Z,3.00
2019-03-11T02:44:46.392Z,3.00
2019-03-11T02:47:14.657Z,3.00
2019-03-11T02:49:44.124Z,2.90
2019-03-11T02:52:12.455Z,3.00
2019-03-11T02:54:41.519Z,3.00
2019-03-11T02:57:09.689Z,3.00
2019-03-11T02:59:38.037Z,3.00
2019-03-11T03:02:28.368Z,3.00
2019-03-11T03:05:07.296Z,3.00
2019-03-11T03:07:36.508Z,3.00
2019-03-11T03:10:05.277Z,3.00
2019-03-11T03:12:33.411Z,3.10
2019-03-11T03:15:01.587Z,3.10
2019-03-11T03:17:30.784Z,3.10
2019-03-11T03:19:58.905Z,3.10
2019-03-11T03:22:28.179Z,3.10
2019-03-11T03:24:56.177Z,3.10
2019-03-11T03:27:24.389Z,3.00
2019-03-11T03:29:52.430Z,3.00
2019-03-11T03:32:20.496Z,3.00
2019-03-11T03:34:49.589Z,3.00
2019-03-11T03:37:18.730Z,3.00
2019-03-11T03:39:47.065Z,2.90
2019-03-11T03:42:15.285Z,2.90
2019-03-11T03:45:27.032Z,2.80
2019-03-11T03:47:56.179Z,2.80
2019-03-11T03:50:24.552Z,2.70
2019-03-11T03:52:52.704Z,2.70
2019-03-11T03:55:20.965Z,2.70
2019-03-11T03:57:49.101Z,2.60
2019-03-11T04:00:17.269Z,2.70
2019-03-11T04:02:45.484Z,2.70
2019-03-11T04:05:13.876Z,2.70
2019-03-11T04:07:41.949Z,2.80
2019-03-11T04:10:11.914Z,2.80
2019-03-11T04:12:40.215Z,2.80
2019-03-11T04:15:08.580Z,2.80
2019-03-11T04:17:36.906Z,2.90
2019-03-11T04:20:08.603Z,2.80
2019-03-11T04:22:36.780Z,2.90
2019-03-11T04:25:05.416Z,2.90
2019-03-11T04:27:33.749Z,3.00
2019-03-11T04:30:02.677Z,2.80
2019-03-11T04:32:30.865Z,2.90
2019-03-11T04:34:59.208Z,2.80
2019-03-11T04:37:27.326Z,2.80
2019-03-11T04:39:55.480Z,2.70
2019-03-11T04:42:23.720Z,2.50
2019-03-11T04:44:52.027Z,2.50
2019-03-11T04:47:20.212Z,2.40
2019-03-11T04:49:48.958Z,2.30
2019-03-11T04:52:17.024Z,2.30
2019-03-11T04:54:45.151Z,2.30
2019-03-11T04:57:13.323Z,2.30
2019-03-11T04:59:41.593Z,2.30
2019-03-11T05:02:09.805Z,2.20
2019-03-11T05:04:38.900Z,2.20
2019-03-11T05:07:06.968Z,2.10
2019-03-11T05:09:35.171Z,2.20
2019-03-11T05:12:03.298Z,2.20
2019-03-11T05:14:31.481Z,2.10
2019-03-11T05:16:59.578Z,2.20
2019-03-11T05:19:27.702Z,2.10
2019-03-11T05:21:56.923Z,2.10
2019-03-11T05:24:24.994Z,2.00
2019-03-11T05:26:53.297Z,2.00
2019-03-11T05:29:21.367Z,2.10
2019-03-11T05:31:49.567Z,2.10
2019-03-11T05:34:18.588Z,2.10
2019-03-11T05:36:46.933Z,2.10
2019-03-11T05:39:15.078Z,2.10
2019-03-11T05:41:43.184Z,2.10
2019-03-11T05:44:11.274Z,2.10
2019-03-11T05:46:39.395Z,2.20
2019-03-11T05:49:07.584Z,2.20
2019-03-11T05:51:35.694Z,2.30
2019-03-11T05:54:03.891Z,2.30
2019-03-11T05:56:31.949Z,2.30
2019-03-11T05:59:00.102Z,2.40
2019-03-11T06:01:28.265Z,2.50
2019-03-11T06:03:56.327Z,2.50
2019-03-11T06:06:24.376Z,2.60
2019-03-11T06:08:52.706Z,2.60
2019-03-11T06:11:20.848Z,2.60
2019-03-11T06:13:48.999Z,2.60
2019-03-11T06:16:17.173Z,2.60
2019-03-11T06:18:48.336Z,2.60
2019-03-11T06:21:40.754Z,2.60
2019-03-11T06:24:08.938Z,2.70
2019-03-11T06:26:37.121Z,2.70
2019-03-11T06:29:05.299Z,2.70
2019-03-11T06:31:33.495Z,2.70
2019-03-11T06:34:01.576Z,2.70
2019-03-11T06:36:29.645Z,2.70
2019-03-11T06:39:05.263Z,2.80
2019-03-11T06:41:27.770Z,2.80
2019-03-11T06:43:56.027Z,2.90
2019-03-11T06:46:24.146Z,2.90
2019-03-11T06:48:52.217Z,2.90
2019-03-11T06:51:20.285Z,2.90
2019-03-11T06:53:48.358Z,2.90
2019-03-11T06:56:16.544Z,3.00
2019-03-11T06:58:44.713Z,3.00
2019-03-11T07:01:12.919Z,3.00
2019-03-11T07:03:41.099Z,3.00
2019-03-11T07:06:09.341Z,3.10
2019-03-11T07:08:37.764Z,3.10
2019-03-11T07:11:06.942Z,3.10
2019-03-11T07:13:35.035Z,3.10
2019-03-11T07:16:03.169Z,3.10
2019-03-11T07:18:31.319Z,3.10
2019-03-11T07:20:59.489Z,3.10
2019-03-11T07:23:27.691Z,3.10
2019-03-11T07:25:55.840Z,3.20
2019-03-11T07:28:23.942Z,3.30
2019-03-11T07:30:52.157Z,3.30
2019-03-11T07:33:20.429Z,3.30
2019-03-11T07:35:48.513Z,3.30
2019-03-11T07:38:16.721Z,3.30
2019-03-11T07:40:44.944Z,3.40
2019-03-11T07:43:13.139Z,3.30
2019-03-11T07:45:41.329Z,3.30
2019-03-11T07:48:09.411Z,3.30
2019-03-11T07:50:37.572Z,3.30
2019-03-11T07:53:05.611Z,3.30
2019-03-11T07:55:33.653Z,3.30
2019-03-11T07:58:01.709Z,3.40
2019-03-11T08:00:29.771Z,3.50
2019-03-11T08:02:57.876Z,3.50
2019-03-11T08:05:25.976Z,3.50
2019-03-11T08:07:54.297Z,3.50
2019-03-11T08:10:23.651Z,3.50
2019-03-11T08:12:53.112Z,3.60
2019-03-11T08:15:21.138Z,3.60
2019-03-11T08:17:49.303Z,3.60
2019-03-11T08:20:17.720Z,3.60
2019-03-11T08:22:45.875Z,3.60
2019-03-11T08:25:15.401Z,3.70
2019-03-11T08:27:43.842Z,3.70
2019-03-11T08:30:12.477Z,3.70
2019-03-11T08:32:40.691Z,3.80
2019-03-11T08:35:08.952Z,3.80
2019-03-11T08:37:37.114Z,3.90
2019-03-11T08:40:05.797Z,3.90
2019-03-11T08:42:33.974Z,3.90
2019-03-11T08:45:02.182Z,3.90
2019-03-11T08:47:30.400Z,3.80
2019-03-11T08:49:59.860Z,3.80
2019-03-11T08:52:28.012Z,3.70
2019-03-11T08:54:56.203Z,3.70
2019-03-11T08:57:24.355Z,3.70
2019-03-11T08:59:52.475Z,3.70
2019-03-11T09:02:20.523Z,3.70
2019-03-11T09:04:48.640Z,3.70
2019-03-11T09:07:16.774Z,3.70
2019-03-11T09:09:44.872Z,3.80
2019-03-11T09:12:13.099Z,3.90
2019-03-11T09:14:41.320Z,3.90
2019-03-11T09:17:09.471Z,3.90
2019-03-11T09:19:37.597Z,3.90
2019-03-11T09:22:08.157Z,3.90
2019-03-11T09:24:36.242Z,3.90
2019-03-11T09:27:04.665Z,4.00
2019-03-11T09:29:32.697Z,4.10
2019-03-11T09:32:02.032Z,4.40
2019-03-11T09:34:30.350Z,4.70
2019-03-11T09:36:58.567Z,4.80
2019-03-11T09:39:26.802Z,4.70
2019-03-11T09:41:54.868Z,4.60
2019-03-11T09:44:23.032Z,4.60
2019-03-11T09:46:51.991Z,4.80
2019-03-11T09:49:20.277Z,5.00
2019-03-11T09:51:48.311Z,5.00
2019-03-11T09:54:16.557Z,4.70
2019-03-11T09:56:44.740Z,4.10
2019-03-11T09:59:12.910Z,4.00
2019-03-11T10:01:40.950Z,3.90
2019-03-11T10:04:09.053Z,3.80
2019-03-11T10:06:37.134Z,3.80
2019-03-11T10:09:06.755Z,3.70
2019-03-11T10:11:36.769Z,3.70
2019-03-11T10:14:05.039Z,3.70
2019-03-11T10:16:33.121Z,3.70
2019-03-11T10:19:01.326Z,3.70
2019-03-11T10:21:29.379Z,3.70
2019-03-11T10:23:59.257Z,3.80
2019-03-11T10:26:27.922Z,4.00
2019-03-11T10:28:56.126Z,4.20
2019-03-11T10:31:24.261Z,4.30
2019-03-11T10:33:52.453Z,4.50
2019-03-11T10:36:20.612Z,4.70
2019-03-11T10:38:48.684Z,4.80
2019-03-11T10:41:16.780Z,4.90
2019-03-11T10:43:44.909Z,5.00
2019-03-11T10:46:13.093Z,5.00
2019-03-11T10:48:41.369Z,5.10
2019-03-11T10:51:09.707Z,5.10
2019-03-11T10:53:37.897Z,5.20
2019-03-11T10:56:06.156Z,5.20
2019-03-11T10:58:36.216Z,5.20
2019-03-11T11:01:04.405Z,5.40
2019-03-11T11:03:32.446Z,5.40
2019-03-11T11:06:00.551Z,5.40
2019-03-11T11:08:28.695Z,5.50
2019-03-11T11:10:56.776Z,5.60
2019-03-11T11:13:25.262Z,5.60
2019-03-11T11:15:53.579Z,5.60
2019-03-11T11:18:21.794Z,5.70
2019-03-11T11:20:50.234Z,5.70
2019-03-11T11:23:18.424Z,5.70
2019-03-11T11:25:46.596Z,5.70
2019-03-11T11:28:16.281Z,5.70
2019-03-11T11:30:44.436Z,5.80
2019-03-11T11:33:12.697Z,5.70
2019-03-11T11:35:40.812Z,5.80
2019-03-11T11:38:08.911Z,5.80
2019-03-11T11:40:37.026Z,5.80
2019-03-11T11:43:05.323Z,5.70
2019-03-11T11:45:33.490Z,5.60
2019-03-11T11:48:02.043Z,5.50
2019-03-11T11:50:31.228Z,5.50
2019-03-11T11:53:00.969Z,5.50
2019-03-11T11:55:30.388Z,5.50
2019-03-11T11:57:58.585Z,5.50
2019-03-11T12:00:28.211Z,5.50
2019-03-11T12:02:56.352Z,5.50
2019-03-11T12:05:24.529Z,5.50
2019-03-11T12:07:52.900Z,5.60
2019-03-11T12:10:21.381Z,5.60
2019-03-11T12:12:49.521Z,5.70
2019-03-11T12:15:17.748Z,5.70
2019-03-11T12:17:46.687Z,5.70
2019-03-11T12:20:17.439Z,5.70
2019-03-11T12:22:45.629Z,5.80
2019-03-11T12:25:15.056Z,5.90
2019-03-11T12:27:53.016Z,5.90
2019-03-11T12:30:17.700Z,5.90
2019-03-11T12:32:46.482Z,5.90
2019-03-11T12:35:14.885Z,5.90
2019-03-11T12:37:43.268Z,5.90
2019-03-11T12:40:12.533Z,5.90
2019-03-11T12:42:40.704Z,5.90
2019-03-11T12:45:10.503Z,5.90
2019-03-11T12:47:38.569Z,6.00
2019-03-11T12:50:10.787Z,5.90
2019-03-11T12:52:38.975Z,5.90
2019-03-11T12:55:07.150Z,5.90
2019-03-11T12:57:35.327Z,5.80
2019-03-11T13:00:05.581Z,5.90
2019-03-11T13:02:33.863Z,5.90
2019-03-11T13:05:02.096Z,5.80
2019-03-11T13:07:32.166Z,5.80
2019-03-11T13:10:00.351Z,5.80
2019-03-11T13:12:28.496Z,5.90
2019-03-11T13:14:56.639Z,6.00
2019-03-11T13:17:24.749Z,6.00
2019-03-11T13:19:54.000Z,6.10
2019-03-11T13:22:22.061Z,6.10
2019-03-11T13:24:50.207Z,6.10
2019-03-11T13:27:18.697Z,6.10
2019-03-11T13:29:47.066Z,6.20
2019-03-11T13:32:15.403Z,6.20
2019-03-11T13:34:43.619Z,6.30
2019-03-11T13:37:11.760Z,6.10
2019-03-11T13:39:39.859Z,6.00
2019-03-11T13:42:08.035Z,5.90
2019-03-11T13:44:36.211Z,5.90
2019-03-11T13:47:04.519Z,5.90
2019-03-11T13:49:32.660Z,6.00
2019-03-11T13:52:00.841Z,6.00
2019-03-11T13:54:28.949Z,6.10
2019-03-11T13:56:57.027Z,6.10
2019-03-11T13:59:25.111Z,6.20
2019-03-11T14:01:53.143Z,6.20
2019-03-11T14:04:21.203Z,6.20
2019-03-11T14:06:49.329Z,6.20
2019-03-11T14:09:17.618Z,6.10
2019-03-11T14:11:45.953Z,6.10
2019-03-11T14:14:13.967Z,6.10
2019-03-11T14:16:42.197Z,6.10
2019-03-11T14:19:10.282Z,6.10
2019-03-11T14:21:38.346Z,6.00
2019-03-11T14:24:06.474Z,6.00
2019-03-11T14:26:34.545Z,6.10
2019-03-11T14:29:02.567Z,6.10
2019-03-11T14:31:30.667Z,6.10
2019-03-11T14:33:58.763Z,6.20
2019-03-11T14:36:26.843Z,6.20
2019-03-11T14:38:55.290Z,6.30
2019-03-11T14:41:23.516Z,6.30
2019-03-11T14:43:51.681Z,6.30
2019-03-11T14:46:19.895Z,6.20
2019-03-11T14:48:47.944Z,6.30
2019-03-11T14:51:16.010Z,6.20
2019-03-11T14:53:44.168Z,6.10
2019-03-11T14:56:12.238Z,6.10
2019-03-11T14:58:40.418Z,6.00
2019-03-11T15:01:08.563Z,6.00
2019-03-11T15:03:36.738Z,6.00
2019-03-11T15:06:04.915Z,5.90
2019-03-11T15:08:33.120Z,5.90
2019-03-11T15:11:01.285Z,5.80
2019-03-11T15:13:29.679Z,5.80
2019-03-11T15:15:57.908Z,5.70
2019-03-11T15:18:26.081Z,5.70
2019-03-11T15:20:54.181Z,5.70
2019-03-11T15:23:22.206Z,5.60
2019-03-11T15:25:50.335Z,5.60
2019-03-11T15:28:18.348Z,5.50
2019-03-11T15:30:46.430Z,5.50
2019-03-11T15:33:15.477Z,5.50
2019-03-11T15:35:43.611Z,5.40
2019-03-11T15:38:11.726Z,5.50
2019-03-11T15:40:39.789Z,5.50
2019-03-11T15:43:07.930Z,5.40
2019-03-11T15:45:38.784Z,5.40
2019-03-11T15:48:06.122Z,5.30
2019-03-11T15:50:34.284Z,5.20
2019-03-11T15:53:03.441Z,5.20
2019-03-11T15:55:32.423Z,5.30
2019-03-11T15:58:00.467Z,5.30
2019-03-11T16:00:28.994Z,5.40
2019-03-11T16:02:57.102Z,5.40
2019-03-11T16:05:25.477Z,5.30
2019-03-11T16:07:53.891Z,5.20
2019-03-11T16:10:22.279Z,5.10
2019-03-11T16:12:50.462Z,5.00
2019-03-11T16:15:19.175Z,5.00
2019-03-11T16:17:47.533Z,5.00
2019-03-11T16:20:16.468Z,5.00
2019-03-11T16:22:44.906Z,5.00
2019-03-11T16:25:13.258Z,5.00
2019-03-11T16:27:41.534Z,5.00
2019-03-11T16:30:14.098Z,5.00
2019-03-11T16:32:57.496Z,5.00
2019-03-11T16:35:12.447Z,5.00
2019-03-11T16:37:40.700Z,5.00
2019-03-11T16:40:09.678Z,5.00
2019-03-11T16:42:38.132Z,5.00
2019-03-11T16:45:08.000Z,5.00
2019-03-11T16:47:36.168Z,5.00
2019-03-11T16:50:05.135Z,4.90
2019-03-11T16:52:33.277Z,4.90
2019-03-11T16:55:01.496Z,5.00
2019-03-11T16:57:29.800Z,5.00
2019-03-11T16:59:57.866Z,5.00
2019-03-11T17:02:26.207Z,5.10
2019-03-11T17:04:54.248Z,5.00
2019-03-11T17:07:22.569Z,5.00
2019-03-11T17:09:50.863Z,4.90
2019-03-11T17:12:18.942Z,4.90
2019-03-11T17:14:47.055Z,5.00
2019-03-11T17:17:15.123Z,5.00
2019-03-11T17:19:43.442Z,5.00
2019-03-11T17:22:11.528Z,5.00
2019-03-11T17:24:39.639Z,5.00
2019-03-11T17:27:07.723Z,5.00
2019-03-11T17:29:35.945Z,5.00
2019-03-11T17:32:04.040Z,4.90
2019-03-11T17:34:32.107Z,5.00
2019-03-11T17:37:00.411Z,5.00
2019-03-11T17:39:28.638Z,5.00
2019-03-11T17:41:56.900Z,5.00
2019-03-11T17:44:25.028Z,5.00
2019-03-11T17:46:53.370Z,5.00
2019-03-11T17:49:21.692Z,5.00
2019-03-11T17:51:49.940Z,5.10
2019-03-11T17:54:19.161Z,5.10
2019-03-11T17:56:47.433Z,5.10
2019-03-11T17:59:15.848Z,5.10
2019-03-11T18:01:44.043Z,5.10
2019-03-11T18:04:12.336Z,5.10
2019-03-11T18:06:40.529Z,5.00
2019-03-11T18:09:08.725Z,5.00
2019-03-11T18:11:36.888Z,4.90
2019-03-11T18:14:04.999Z,4.90
2019-03-11T18:16:33.208Z,4.90
2019-03-11T18:19:01.330Z,4.90
2019-03-11T18:21:29.533Z,4.80
2019-03-11T18:23:58.037Z,4.80
2019-03-11T18:26:26.408Z,4.80
2019-03-11T18:28:54.632Z,4.80
2019-03-11T18:31:22.831Z,4.80
2019-03-11T18:33:51.041Z,4.70
2019-03-11T18:36:19.235Z,4.70
2019-03-11T18:38:47.433Z,4.60
2019-03-11T18:41:15.581Z,4.60
2019-03-11T18:43:43.666Z,4.60
2019-03-11T18:46:11.853Z,4.60
2019-03-11T18:48:39.922Z,4.50
2019-03-11T18:51:11.124Z,4.50
2019-03-11T18:53:38.327Z,4.50
2019-03-11T18:56:06.688Z,4.50
2019-03-11T18:58:34.873Z,4.50
2019-03-11T19:01:03.383Z,4.50
2019-03-11T19:03:31.666Z,4.40
2019-03-11T19:05:59.721Z,4.40
2019-03-11T19:08:28.008Z,4.40
2019-03-11T19:10:56.356Z,4.50
2019-03-11T19:13:25.074Z,4.40
2019-03-11T19:15:53.529Z,4.50
2019-03-11T19:18:21.688Z,4.40
2019-03-11T19:20:49.887Z,4.40
2019-03-11T19:23:18.013Z,4.30
2019-03-11T19:25:46.181Z,4.30
2019-03-11T19:28:14.401Z,4.30
2019-03-11T19:30:42.550Z,4.30
2019-03-11T19:33:11.518Z,4.20
2019-03-11T19:35:40.092Z,4.20
2019-03-11T19:38:08.975Z,4.20
2019-03-11T19:40:38.081Z,4.20
2019-03-11T19:43:06.363Z,4.20
2019-03-11T19:45:34.606Z,4.20
2019-03-11T19:48:03.048Z,4.20
2019-03-11T19:50:31.368Z,4.10
2019-03-11T19:52:59.763Z,4.10
2019-03-11T19:55:28.002Z,4.10
2019-03-11T19:57:56.696Z,4.10
2019-03-11T20:00:24.858Z,4.10
2019-03-11T20:02:53.375Z,4.10
2019-03-11T20:05:22.642Z,4.10
2019-03-11T20:07:51.163Z,4.10
2019-03-11T20:10:19.435Z,4.00
2019-03-11T20:12:47.606Z,4.00
2019-03-11T20:15:16.022Z,4.00
2019-03-11T20:17:44.734Z,4.00
2019-03-11T20:20:13.674Z,4.00
2019-03-11T20:22:42.715Z,4.00
2019-03-11T20:25:14.894Z,4.00
2019-03-11T20:27:43.031Z,4.00
2019-03-11T20:30:15.390Z,4.00
2019-03-11T20:32:44.072Z,4.00
2019-03-11T20:35:17.571Z,4.00
2019-03-11T20:37:46.243Z,4.00
2019-03-11T20:40:14.547Z,4.00
2019-03-11T20:42:42.935Z,4.00
2019-03-11T20:45:11.872Z,3.90
2019-03-11T20:47:40.064Z,3.90
2019-03-11T20:50:10.399Z,3.90
2019-03-11T20:52:38.571Z,3.90
2019-03-11T20:55:08.187Z,3.90
2019-03-11T20:57:36.395Z,3.90
2019-03-11T21:00:07.220Z,3.90
2019-03-11T21:02:35.609Z,3.90
2019-03-11T21:05:03.861Z,3.90
2019-03-11T21:07:32.163Z,3.90
2019-03-11T21:10:00.444Z,3.90
2019-03-11T21:12:28.704Z,3.90
2019-03-11T21:14:57.290Z,3.90
2019-03-11T21:17:29.235Z,3.90
2019-03-11T21:19:55.468Z,3.90
2019-03-11T21:22:23.632Z,3.90
2019-03-11T21:24:59.472Z,3.80
2019-03-11T21:27:21.768Z,3.80
2019-03-11T21:29:50.043Z,3.70
2019-03-11T21:32:18.418Z,3.80
2019-03-11T21:34:46.692Z,3.80
2019-03-11T21:37:15.396Z,3.80
2019-03-11T21:39:43.722Z,3.80
2019-03-11T21:42:11.920Z,3.70
2019-03-11T21:44:40.984Z,3.70
2019-03-11T21:47:10.185Z,3.70
2019-03-11T21:49:38.561Z,3.60
2019-03-11T21:52:06.739Z,3.90
2019-03-11T21:54:34.971Z,3.70
2019-03-11T21:57:03.148Z,3.70
2019-03-11T21:59:31.507Z,3.60
2019-03-11T22:01:59.795Z,3.70
2019-03-11T22:04:28.027Z,4.00
2019-03-11T22:06:56.124Z,4.20
2019-03-11T22:09:24.233Z,4.40
2019-03-11T22:11:52.310Z,4.50
2019-03-11T22:14:20.375Z,4.70
2019-03-11T22:16:48.741Z,4.80
2019-03-11T22:19:16.765Z,4.80
2019-03-11T22:21:44.844Z,4.60
2019-03-11T22:24:14.297Z,4.40
2019-03-11T22:26:42.386Z,4.20
2019-03-11T22:29:10.422Z,4.00
2019-03-11T22:31:38.663Z,3.90
2019-03-11T22:34:06.801Z,3.80
2019-03-11T22:36:34.980Z,3.80
2019-03-11T22:39:04.398Z,3.80
2019-03-11T22:41:34.203Z,3.70
2019-03-11T22:44:02.551Z,3.70
2019-03-11T22:46:30.955Z,3.70
2019-03-11T22:48:59.240Z,3.70
2019-03-11T22:51:27.316Z,3.70
2019-03-11T22:53:55.606Z,3.70
2019-03-11T22:56:23.909Z,3.70
2019-03-11T22:58:51.969Z,3.80
2019-03-11T23:01:20.393Z,3.70
2019-03-11T23:03:50.784Z,3.70
2019-03-11T23:06:19.018Z,3.70
2019-03-11T23:08:47.242Z,3.70
2019-03-11T23:11:15.412Z,3.70
2019-03-11T23:13:43.514Z,3.70
2019-03-11T23:16:11.650Z,3.70
2019-03-11T23:18:39.757Z,3.70
2019-03-11T23:21:07.955Z,3.60
2019-03-11T23:23:35.998Z,3.60
2019-03-11T23:26:04.272Z,3.60
2019-03-11T23:28:33.515Z,3.60
2019-03-11T23:31:02.252Z,3.70
2019-03-11T23:33:31.119Z,3.60
2019-03-11T23:35:59.322Z,3.60
2019-03-11T23:38:27.967Z,3.70
2019-03-11T23:40:56.440Z,3.60
2019-03-11T23:43:24.836Z,3.60
2019-03-11T23:45:53.217Z,3.60
2019-03-11T23:48:21.326Z,3.60
2019-03-11T23:50:49.513Z,3.60
2019-03-11T23:53:17.601Z,3.60
2019-03-11T23:55:46.373Z,3.60
2019-03-11T23:58:16.995Z,3.60
